sensor_id;sensor_type;location;lat;lon;timestamp;P1;durP1;ratioP1;P2;durP2;ratioP2
56860;SDS011;42744;51.094;3.490;2022-12-11T00:02:00;34.40;;;17.97;;
56860;SDS011;42744;51.094;3.490;2022-12-11T00:04:26;32.23;;;17.03;;
56860;SDS011;42744;51.094;3.490;2022-12-11T00:06:52;34.43;;;17.97;;
56860;SDS011;42744;51.094;3.490;2022-12-11T00:09:19;33.07;;;16.73;;
56860;SDS011;42744;51.094;3.490;2022-12-11T00:11:46;35.80;;;17.87;;
56860;SDS011;42744;51.094;3.490;2022-12-11T00:14:12;41.50;;;18.03;;
56860;SDS011;42744;51.094;3.490;2022-12-11T00:16:39;35.50;;;17.37;;
56860;SDS011;42744;51.094;3.490;2022-12-11T00:19:05;32.60;;;16.40;;
56860;SDS011;42744;51.094;3.490;2022-12-11T00:21:31;33.27;;;17.00;;
56860;SDS011;42744;51.094;3.490;2022-12-11T00:23:58;32.97;;;16.63;;
56860;SDS011;42744;51.094;3.490;2022-12-11T00:26:30;35.90;;;18.00;;
56860;SDS011;42744;51.094;3.490;2022-12-11T00:28:56;31.80;;;15.50;;
56860;SDS011;42744;51.094;3.490;2022-12-11T00:31:24;40.20;;;18.23;;
56860;SDS011;42744;51.094;3.490;2022-12-11T00:33:50;31.53;;;15.77;;
56860;SDS011;42744;51.094;3.490;2022-12-11T00:36:18;33.50;;;16.87;;
56860;SDS011;42744;51.094;3.490;2022-12-11T00:38:46;35.63;;;17.40;;
56860;SDS011;42744;51.094;3.490;2022-12-11T00:41:13;34.20;;;17.53;;
56860;SDS011;42744;51.094;3.490;2022-12-11T00:43:40;31.73;;;16.43;;
56860;SDS011;42744;51.094;3.490;2022-12-11T00:46:06;30.83;;;16.27;;
56860;SDS011;42744;51.094;3.490;2022-12-11T00:48:32;33.30;;;17.07;;
56860;SDS011;42744;51.094;3.490;2022-12-11T00:51:01;34.37;;;16.77;;
56860;SDS011;42744;51.094;3.490;2022-12-11T00:53:28;34.63;;;16.37;;
56860;SDS011;42744;51.094;3.490;2022-12-11T00:55:54;35.90;;;16.13;;
56860;SDS011;42744;51.094;3.490;2022-12-11T00:58:20;30.00;;;15.53;;
56860;SDS011;42744;51.094;3.490;2022-12-11T01:00:46;27.97;;;15.13;;
56860;SDS011;42744;51.094;3.490;2022-12-11T01:03:15;32.83;;;15.40;;
56860;SDS011;42744;51.094;3.490;2022-12-11T01:05:49;30.83;;;15.60;;
56860;SDS011;42744;51.094;3.490;2022-12-11T01:08:17;31.17;;;15.60;;
56860;SDS011;42744;51.094;3.490;2022-12-11T01:10:43;27.90;;;14.30;;
56860;SDS011;42744;51.094;3.490;2022-12-11T01:13:10;31.23;;;15.20;;
56860;SDS011;42744;51.094;3.490;2022-12-11T01:15:40;29.67;;;15.03;;
56860;SDS011;42744;51.094;3.490;2022-12-11T01:18:08;29.53;;;15.27;;
56860;SDS011;42744;51.094;3.490;2022-12-11T01:20:40;29.23;;;15.30;;
56860;SDS011;42744;51.094;3.490;2022-12-11T01:23:06;33.23;;;15.20;;
56860;SDS011;42744;51.094;3.490;2022-12-11T01:25:34;33.07;;;15.63;;
56860;SDS011;42744;51.094;3.490;2022-12-11T01:28:02;31.80;;;14.83;;
56860;SDS011;42744;51.094;3.490;2022-12-11T01:30:29;26.80;;;14.30;;
56860;SDS011;42744;51.094;3.490;2022-12-11T01:32:58;33.43;;;14.67;;
56860;SDS011;42744;51.094;3.490;2022-12-11T01:35:25;30.73;;;14.80;;
56860;SDS011;42744;51.094;3.490;2022-12-11T01:37:51;30.93;;;15.43;;
56860;SDS011;42744;51.094;3.490;2022-12-11T01:40:18;30.53;;;14.87;;
56860;SDS011;42744;51.094;3.490;2022-12-11T01:42:45;31.90;;;14.83;;
56860;SDS011;42744;51.094;3.490;2022-12-11T01:45:19;30.80;;;15.40;;
56860;SDS011;42744;51.094;3.490;2022-12-11T01:47:48;30.37;;;14.87;;
56860;SDS011;42744;51.094;3.490;2022-12-11T01:50:15;31.63;;;14.63;;
56860;SDS011;42744;51.094;3.490;2022-12-11T01:52:42;31.13;;;14.80;;
56860;SDS011;42744;51.094;3.490;2022-12-11T01:55:11;30.20;;;14.50;;
56860;SDS011;42744;51.094;3.490;2022-12-11T01:57:37;30.67;;;15.00;;
56860;SDS011;42744;51.094;3.490;2022-12-11T02:00:07;30.07;;;15.03;;
56860;SDS011;42744;51.094;3.490;2022-12-11T02:02:38;30.03;;;14.97;;
56860;SDS011;42744;51.094;3.490;2022-12-11T02:05:05;32.50;;;15.00;;
56860;SDS011;42744;51.094;3.490;2022-12-11T02:07:38;29.97;;;13.93;;
56860;SDS011;42744;51.094;3.490;2022-12-11T02:10:12;31.60;;;14.93;;
56860;SDS011;42744;51.094;3.490;2022-12-11T02:12:47;29.80;;;14.93;;
56860;SDS011;42744;51.094;3.490;2022-12-11T02:18:41;30.70;;;13.67;;
56860;SDS011;42744;51.094;3.490;2022-12-11T02:21:18;28.70;;;15.57;;
56860;SDS011;42744;51.094;3.490;2022-12-11T02:29:48;29.77;;;14.87;;
56860;SDS011;42744;51.094;3.490;2022-12-11T02:32:20;28.40;;;14.80;;
56860;SDS011;42744;51.094;3.490;2022-12-11T02:34:59;29.83;;;13.90;;
56860;SDS011;42744;51.094;3.490;2022-12-11T02:37:28;26.67;;;14.63;;
56860;SDS011;42744;51.094;3.490;2022-12-11T02:39:56;28.40;;;14.87;;
56860;SDS011;42744;51.094;3.490;2022-12-11T02:42:23;32.07;;;15.30;;
56860;SDS011;42744;51.094;3.490;2022-12-11T02:44:53;32.63;;;14.90;;
56860;SDS011;42744;51.094;3.490;2022-12-11T02:47:22;30.13;;;15.53;;
56860;SDS011;42744;51.094;3.490;2022-12-11T02:49:49;32.47;;;15.67;;
56860;SDS011;42744;51.094;3.490;2022-12-11T02:52:17;29.80;;;15.40;;
56860;SDS011;42744;51.094;3.490;2022-12-11T02:54:46;31.27;;;15.67;;
56860;SDS011;42744;51.094;3.490;2022-12-11T02:57:15;32.97;;;16.40;;
56860;SDS011;42744;51.094;3.490;2022-12-11T02:59:46;30.73;;;15.50;;
56860;SDS011;42744;51.094;3.490;2022-12-11T03:02:12;34.63;;;16.10;;
56860;SDS011;42744;51.094;3.490;2022-12-11T03:04:41;28.87;;;14.33;;
56860;SDS011;42744;51.094;3.490;2022-12-11T03:07:17;33.67;;;15.83;;
56860;SDS011;42744;51.094;3.490;2022-12-11T03:09:48;28.70;;;15.00;;
56860;SDS011;42744;51.094;3.490;2022-12-11T03:12:26;33.27;;;15.23;;
56860;SDS011;42744;51.094;3.490;2022-12-11T03:14:59;31.17;;;14.97;;
56860;SDS011;42744;51.094;3.490;2022-12-11T03:17:44;34.17;;;15.37;;
56860;SDS011;42744;51.094;3.490;2022-12-11T03:26:04;34.17;;;15.27;;
56860;SDS011;42744;51.094;3.490;2022-12-11T03:31:17;29.47;;;15.07;;
56860;SDS011;42744;51.094;3.490;2022-12-11T03:34:08;30.40;;;15.67;;
56860;SDS011;42744;51.094;3.490;2022-12-11T03:36:48;30.90;;;15.63;;
56860;SDS011;42744;51.094;3.490;2022-12-11T03:39:17;34.37;;;16.23;;
56860;SDS011;42744;51.094;3.490;2022-12-11T03:41:48;32.97;;;16.10;;
56860;SDS011;42744;51.094;3.490;2022-12-11T03:44:16;38.47;;;17.83;;
56860;SDS011;42744;51.094;3.490;2022-12-11T03:46:44;34.80;;;17.87;;
56860;SDS011;42744;51.094;3.490;2022-12-11T03:49:16;30.73;;;16.00;;
56860;SDS011;42744;51.094;3.490;2022-12-11T03:51:45;35.50;;;16.77;;
56860;SDS011;42744;51.094;3.490;2022-12-11T03:54:16;35.10;;;18.27;;
56860;SDS011;42744;51.094;3.490;2022-12-11T03:56:44;35.50;;;17.47;;
56860;SDS011;42744;51.094;3.490;2022-12-11T03:59:11;34.60;;;16.93;;
56860;SDS011;42744;51.094;3.490;2022-12-11T04:01:37;32.60;;;17.27;;
56860;SDS011;42744;51.094;3.490;2022-12-11T04:04:04;36.00;;;17.20;;
56860;SDS011;42744;51.094;3.490;2022-12-11T04:06:30;31.90;;;17.00;;
56860;SDS011;42744;51.094;3.490;2022-12-11T04:08:56;36.53;;;17.93;;
56860;SDS011;42744;51.094;3.490;2022-12-11T04:11:22;41.60;;;18.57;;
56860;SDS011;42744;51.094;3.490;2022-12-11T04:14:04;38.70;;;18.90;;
56860;SDS011;42744;51.094;3.490;2022-12-11T04:16:49;36.10;;;20.10;;
56860;SDS011;42744;51.094;3.490;2022-12-11T04:19:15;40.53;;;19.43;;
56860;SDS011;42744;51.094;3.490;2022-12-11T04:22:00;38.90;;;19.53;;
56860;SDS011;42744;51.094;3.490;2022-12-11T04:24:48;39.67;;;19.50;;
56860;SDS011;42744;51.094;3.490;2022-12-11T04:27:15;39.93;;;18.87;;
56860;SDS011;42744;51.094;3.490;2022-12-11T04:30:01;37.63;;;18.97;;
56860;SDS011;42744;51.094;3.490;2022-12-11T04:32:28;36.13;;;18.17;;
56860;SDS011;42744;51.094;3.490;2022-12-11T04:34:54;39.93;;;19.37;;
56860;SDS011;42744;51.094;3.490;2022-12-11T04:37:20;40.30;;;20.23;;
56860;SDS011;42744;51.094;3.490;2022-12-11T04:39:46;41.43;;;20.67;;
56860;SDS011;42744;51.094;3.490;2022-12-11T04:42:12;43.33;;;19.60;;
56860;SDS011;42744;51.094;3.490;2022-12-11T04:44:38;39.73;;;19.97;;
56860;SDS011;42744;51.094;3.490;2022-12-11T04:47:05;38.70;;;18.90;;
56860;SDS011;42744;51.094;3.490;2022-12-11T04:49:31;36.67;;;18.97;;
56860;SDS011;42744;51.094;3.490;2022-12-11T04:51:57;39.47;;;18.83;;
56860;SDS011;42744;51.094;3.490;2022-12-11T04:54:23;42.13;;;18.97;;
56860;SDS011;42744;51.094;3.490;2022-12-11T04:56:49;36.40;;;18.33;;
56860;SDS011;42744;51.094;3.490;2022-12-11T04:59:15;41.23;;;20.23;;
56860;SDS011;42744;51.094;3.490;2022-12-11T05:01:41;38.53;;;19.00;;
56860;SDS011;42744;51.094;3.490;2022-12-11T05:04:07;37.17;;;19.70;;
56860;SDS011;42744;51.094;3.490;2022-12-11T05:06:33;42.73;;;19.43;;
56860;SDS011;42744;51.094;3.490;2022-12-11T05:08:59;35.80;;;19.03;;
56860;SDS011;42744;51.094;3.490;2022-12-11T05:11:25;42.73;;;20.07;;
56860;SDS011;42744;51.094;3.490;2022-12-11T05:13:53;41.90;;;20.63;;
56860;SDS011;42744;51.094;3.490;2022-12-11T05:16:20;37.60;;;18.20;;
56860;SDS011;42744;51.094;3.490;2022-12-11T05:18:45;39.47;;;19.63;;
56860;SDS011;42744;51.094;3.490;2022-12-11T05:21:13;37.57;;;19.83;;
56860;SDS011;42744;51.094;3.490;2022-12-11T05:23:40;40.33;;;20.43;;
56860;SDS011;42744;51.094;3.490;2022-12-11T05:26:09;40.50;;;20.30;;
56860;SDS011;42744;51.094;3.490;2022-12-11T05:28:37;42.17;;;20.63;;
56860;SDS011;42744;51.094;3.490;2022-12-11T05:31:09;39.47;;;20.70;;
56860;SDS011;42744;51.094;3.490;2022-12-11T05:33:41;44.07;;;20.43;;
56860;SDS011;42744;51.094;3.490;2022-12-11T05:36:12;44.53;;;21.20;;
56860;SDS011;42744;51.094;3.490;2022-12-11T05:38:50;40.60;;;21.37;;
56860;SDS011;42744;51.094;3.490;2022-12-11T05:41:21;42.57;;;21.50;;
56860;SDS011;42744;51.094;3.490;2022-12-11T05:43:48;44.40;;;21.27;;
56860;SDS011;42744;51.094;3.490;2022-12-11T05:46:16;38.67;;;20.43;;
56860;SDS011;42744;51.094;3.490;2022-12-11T05:49:01;43.47;;;21.87;;
56860;SDS011;42744;51.094;3.490;2022-12-11T05:51:27;39.40;;;20.87;;
56860;SDS011;42744;51.094;3.490;2022-12-11T05:53:54;47.10;;;22.63;;
56860;SDS011;42744;51.094;3.490;2022-12-11T05:56:29;42.33;;;21.93;;
56860;SDS011;42744;51.094;3.490;2022-12-11T05:58:58;45.83;;;22.77;;
56860;SDS011;42744;51.094;3.490;2022-12-11T06:01:29;43.20;;;21.90;;
56860;SDS011;42744;51.094;3.490;2022-12-11T06:03:58;42.50;;;21.90;;
56860;SDS011;42744;51.094;3.490;2022-12-11T06:06:25;37.83;;;20.67;;
56860;SDS011;42744;51.094;3.490;2022-12-11T06:08:53;47.00;;;23.60;;
56860;SDS011;42744;51.094;3.490;2022-12-11T06:11:20;45.53;;;22.97;;
56860;SDS011;42744;51.094;3.490;2022-12-11T06:13:52;45.83;;;21.47;;
56860;SDS011;42744;51.094;3.490;2022-12-11T06:16:19;43.20;;;21.70;;
56860;SDS011;42744;51.094;3.490;2022-12-11T06:18:45;40.73;;;22.37;;
56860;SDS011;42744;51.094;3.490;2022-12-11T06:23:43;42.60;;;23.00;;
56860;SDS011;42744;51.094;3.490;2022-12-11T06:26:10;49.63;;;23.50;;
56860;SDS011;42744;51.094;3.490;2022-12-11T06:28:37;40.77;;;21.77;;
56860;SDS011;42744;51.094;3.490;2022-12-11T06:31:04;45.20;;;23.03;;
56860;SDS011;42744;51.094;3.490;2022-12-11T06:33:32;40.17;;;21.97;;
56860;SDS011;42744;51.094;3.490;2022-12-11T06:36:06;44.40;;;21.40;;
56860;SDS011;42744;51.094;3.490;2022-12-11T06:38:37;41.13;;;21.47;;
56860;SDS011;42744;51.094;3.490;2022-12-11T06:41:04;39.50;;;21.63;;
56860;SDS011;42744;51.094;3.490;2022-12-11T06:43:31;43.20;;;22.17;;
56860;SDS011;42744;51.094;3.490;2022-12-11T06:45:58;43.13;;;22.20;;
56860;SDS011;42744;51.094;3.490;2022-12-11T06:48:27;45.93;;;22.67;;
56860;SDS011;42744;51.094;3.490;2022-12-11T06:50:53;40.00;;;20.93;;
56860;SDS011;42744;51.094;3.490;2022-12-11T06:53:19;40.77;;;21.87;;
56860;SDS011;42744;51.094;3.490;2022-12-11T06:55:45;45.10;;;22.70;;
56860;SDS011;42744;51.094;3.490;2022-12-11T06:58:11;44.13;;;22.20;;
56860;SDS011;42744;51.094;3.490;2022-12-11T07:00:37;42.80;;;23.93;;
56860;SDS011;42744;51.094;3.490;2022-12-11T07:03:03;43.07;;;22.00;;
56860;SDS011;42744;51.094;3.490;2022-12-11T07:05:30;42.70;;;22.43;;
56860;SDS011;42744;51.094;3.490;2022-12-11T07:07:57;43.70;;;22.60;;
56860;SDS011;42744;51.094;3.490;2022-12-11T07:10:23;45.37;;;23.57;;
56860;SDS011;42744;51.094;3.490;2022-12-11T07:12:51;46.03;;;22.60;;
56860;SDS011;42744;51.094;3.490;2022-12-11T07:15:19;44.80;;;22.43;;
56860;SDS011;42744;51.094;3.490;2022-12-11T07:17:45;41.87;;;22.47;;
56860;SDS011;42744;51.094;3.490;2022-12-11T07:20:11;45.80;;;23.60;;
56860;SDS011;42744;51.094;3.490;2022-12-11T07:22:40;47.23;;;22.73;;
56860;SDS011;42744;51.094;3.490;2022-12-11T07:25:06;40.03;;;22.77;;
56860;SDS011;42744;51.094;3.490;2022-12-11T07:27:32;43.93;;;23.77;;
56860;SDS011;42744;51.094;3.490;2022-12-11T07:29:58;43.33;;;22.17;;
56860;SDS011;42744;51.094;3.490;2022-12-11T07:32:24;41.80;;;22.53;;
56860;SDS011;42744;51.094;3.490;2022-12-11T07:34:50;42.63;;;22.80;;
56860;SDS011;42744;51.094;3.490;2022-12-11T07:37:16;49.57;;;23.03;;
56860;SDS011;42744;51.094;3.490;2022-12-11T07:39:42;46.87;;;23.77;;
56860;SDS011;42744;51.094;3.490;2022-12-11T07:42:09;42.53;;;22.60;;
56860;SDS011;42744;51.094;3.490;2022-12-11T07:44:35;45.23;;;22.77;;
56860;SDS011;42744;51.094;3.490;2022-12-11T07:47:01;45.57;;;22.97;;
56860;SDS011;42744;51.094;3.490;2022-12-11T07:49:27;41.67;;;23.03;;
56860;SDS011;42744;51.094;3.490;2022-12-11T07:51:54;44.60;;;23.20;;
56860;SDS011;42744;51.094;3.490;2022-12-11T07:54:20;44.53;;;23.03;;
56860;SDS011;42744;51.094;3.490;2022-12-11T07:56:46;40.90;;;23.37;;
56860;SDS011;42744;51.094;3.490;2022-12-11T07:59:13;41.00;;;23.20;;
56860;SDS011;42744;51.094;3.490;2022-12-11T08:01:41;43.57;;;23.30;;
56860;SDS011;42744;51.094;3.490;2022-12-11T08:04:08;45.97;;;22.70;;
56860;SDS011;42744;51.094;3.490;2022-12-11T08:06:40;45.13;;;23.50;;
56860;SDS011;42744;51.094;3.490;2022-12-11T08:09:07;44.83;;;24.90;;
56860;SDS011;42744;51.094;3.490;2022-12-11T08:11:35;44.83;;;23.27;;
56860;SDS011;42744;51.094;3.490;2022-12-11T08:14:02;42.77;;;23.10;;
56860;SDS011;42744;51.094;3.490;2022-12-11T08:16:30;44.97;;;23.40;;
56860;SDS011;42744;51.094;3.490;2022-12-11T08:18:57;43.13;;;23.60;;
56860;SDS011;42744;51.094;3.490;2022-12-11T08:21:24;44.10;;;23.97;;
56860;SDS011;42744;51.094;3.490;2022-12-11T08:23:52;44.97;;;24.03;;
56860;SDS011;42744;51.094;3.490;2022-12-11T08:26:23;41.93;;;22.40;;
56860;SDS011;42744;51.094;3.490;2022-12-11T08:28:51;42.87;;;22.50;;
56860;SDS011;42744;51.094;3.490;2022-12-11T08:31:17;42.37;;;22.83;;
56860;SDS011;42744;51.094;3.490;2022-12-11T08:33:44;47.60;;;24.13;;
56860;SDS011;42744;51.094;3.490;2022-12-11T08:36:11;49.07;;;24.20;;
56860;SDS011;42744;51.094;3.490;2022-12-11T08:38:38;43.40;;;22.23;;
56860;SDS011;42744;51.094;3.490;2022-12-11T08:41:18;41.77;;;22.83;;
56860;SDS011;42744;51.094;3.490;2022-12-11T08:43:49;46.43;;;24.33;;
56860;SDS011;42744;51.094;3.490;2022-12-11T08:46:23;49.93;;;25.93;;
56860;SDS011;42744;51.094;3.490;2022-12-11T08:48:51;48.17;;;25.10;;
56860;SDS011;42744;51.094;3.490;2022-12-11T08:51:18;47.23;;;25.40;;
56860;SDS011;42744;51.094;3.490;2022-12-11T08:53:45;47.83;;;25.47;;
56860;SDS011;42744;51.094;3.490;2022-12-11T08:56:12;49.80;;;24.93;;
56860;SDS011;42744;51.094;3.490;2022-12-11T08:58:40;47.97;;;25.50;;
56860;SDS011;42744;51.094;3.490;2022-12-11T09:01:11;47.80;;;25.33;;
56860;SDS011;42744;51.094;3.490;2022-12-11T09:03:39;54.73;;;27.27;;
56860;SDS011;42744;51.094;3.490;2022-12-11T09:06:06;54.17;;;28.10;;
56860;SDS011;42744;51.094;3.490;2022-12-11T09:08:35;53.80;;;27.07;;
56860;SDS011;42744;51.094;3.490;2022-12-11T09:11:02;54.23;;;27.07;;
56860;SDS011;42744;51.094;3.490;2022-12-11T09:13:31;52.00;;;25.70;;
56860;SDS011;42744;51.094;3.490;2022-12-11T09:15:57;50.20;;;25.77;;
56860;SDS011;42744;51.094;3.490;2022-12-11T09:18:23;45.97;;;25.03;;
56860;SDS011;42744;51.094;3.490;2022-12-11T09:20:59;48.70;;;26.03;;
56860;SDS011;42744;51.094;3.490;2022-12-11T09:23:28;46.70;;;25.13;;
56860;SDS011;42744;51.094;3.490;2022-12-11T09:25:53;45.70;;;24.33;;
56860;SDS011;42744;51.094;3.490;2022-12-11T09:28:20;58.03;;;26.93;;
56860;SDS011;42744;51.094;3.490;2022-12-11T09:30:46;52.27;;;26.03;;
56860;SDS011;42744;51.094;3.490;2022-12-11T09:33:13;49.03;;;25.40;;
56860;SDS011;42744;51.094;3.490;2022-12-11T09:35:39;52.53;;;26.27;;
56860;SDS011;42744;51.094;3.490;2022-12-11T09:38:05;48.47;;;25.77;;
56860;SDS011;42744;51.094;3.490;2022-12-11T09:40:32;47.53;;;25.37;;
56860;SDS011;42744;51.094;3.490;2022-12-11T09:43:02;51.40;;;25.77;;
56860;SDS011;42744;51.094;3.490;2022-12-11T09:45:40;47.47;;;24.13;;
56860;SDS011;42744;51.094;3.490;2022-12-11T09:48:06;45.30;;;24.17;;
56860;SDS011;42744;51.094;3.490;2022-12-11T09:50:35;48.67;;;24.73;;
56860;SDS011;42744;51.094;3.490;2022-12-11T09:53:15;46.50;;;23.97;;
56860;SDS011;42744;51.094;3.490;2022-12-11T09:55:59;43.47;;;24.50;;
56860;SDS011;42744;51.094;3.490;2022-12-11T10:07:19;68.90;;;34.03;;
56860;SDS011;42744;51.094;3.490;2022-12-11T10:09:51;47.10;;;26.97;;
56860;SDS011;42744;51.094;3.490;2022-12-11T10:17:54;45.57;;;24.80;;
56860;SDS011;42744;51.094;3.490;2022-12-11T10:20:24;41.93;;;22.83;;
56860;SDS011;42744;51.094;3.490;2022-12-11T10:22:53;40.43;;;21.87;;
56860;SDS011;42744;51.094;3.490;2022-12-11T10:27:51;40.83;;;22.00;;
56860;SDS011;42744;51.094;3.490;2022-12-11T10:30:18;44.43;;;23.10;;
56860;SDS011;42744;51.094;3.490;2022-12-11T10:35:19;39.47;;;22.27;;
56860;SDS011;42744;51.094;3.490;2022-12-11T10:38:09;43.50;;;22.53;;
56860;SDS011;42744;51.094;3.490;2022-12-11T10:40:37;34.60;;;20.73;;
56860;SDS011;42744;51.094;3.490;2022-12-11T10:43:06;38.50;;;21.67;;
56860;SDS011;42744;51.094;3.490;2022-12-11T10:45:32;34.97;;;20.50;;
56860;SDS011;42744;51.094;3.490;2022-12-11T10:48:05;38.33;;;20.83;;
56860;SDS011;42744;51.094;3.490;2022-12-11T10:50:34;36.93;;;21.17;;
56860;SDS011;42744;51.094;3.490;2022-12-11T10:53:05;35.50;;;18.93;;
56860;SDS011;42744;51.094;3.490;2022-12-11T10:55:45;34.47;;;19.43;;
56860;SDS011;42744;51.094;3.490;2022-12-11T10:58:22;34.57;;;18.83;;
56860;SDS011;42744;51.094;3.490;2022-12-11T11:01:25;32.90;;;18.60;;
56860;SDS011;42744;51.094;3.490;2022-12-11T11:04:13;48.93;;;26.47;;
56860;SDS011;42744;51.094;3.490;2022-12-11T11:06:44;35.77;;;22.03;;
56860;SDS011;42744;51.094;3.490;2022-12-11T11:09:28;32.70;;;19.07;;
56860;SDS011;42744;51.094;3.490;2022-12-11T11:12:00;45.90;;;29.83;;
56860;SDS011;42744;51.094;3.490;2022-12-11T11:14:27;37.97;;;22.17;;
56860;SDS011;42744;51.094;3.490;2022-12-11T11:16:54;33.93;;;21.33;;
56860;SDS011;42744;51.094;3.490;2022-12-11T11:19:31;33.83;;;18.90;;
56860;SDS011;42744;51.094;3.490;2022-12-11T11:22:00;31.97;;;18.43;;
56860;SDS011;42744;51.094;3.490;2022-12-11T11:24:32;34.57;;;18.63;;
56860;SDS011;42744;51.094;3.490;2022-12-11T11:30:12;35.03;;;19.20;;
56860;SDS011;42744;51.094;3.490;2022-12-11T11:32:44;36.20;;;19.90;;
56860;SDS011;42744;51.094;3.490;2022-12-11T11:37:39;37.13;;;19.57;;
56860;SDS011;42744;51.094;3.490;2022-12-11T11:40:10;32.23;;;18.87;;
56860;SDS011;42744;51.094;3.490;2022-12-11T11:46:15;44.47;;;21.67;;
56860;SDS011;42744;51.094;3.490;2022-12-11T11:57:04;32.73;;;17.70;;
56860;SDS011;42744;51.094;3.490;2022-12-11T11:59:40;28.13;;;16.80;;
56860;SDS011;42744;51.094;3.490;2022-12-11T12:02:15;31.13;;;16.90;;
56860;SDS011;42744;51.094;3.490;2022-12-11T12:04:43;30.90;;;17.83;;
56860;SDS011;42744;51.094;3.490;2022-12-11T12:09:45;32.67;;;18.77;;
56860;SDS011;42744;51.094;3.490;2022-12-11T12:12:31;30.27;;;17.00;;
56860;SDS011;42744;51.094;3.490;2022-12-11T12:15:17;33.27;;;17.83;;
56860;SDS011;42744;51.094;3.490;2022-12-11T12:20:36;30.77;;;17.00;;
56860;SDS011;42744;51.094;3.490;2022-12-11T12:34:21;29.03;;;17.17;;
56860;SDS011;42744;51.094;3.490;2022-12-11T12:37:05;30.37;;;17.37;;
56860;SDS011;42744;51.094;3.490;2022-12-11T12:40:13;29.63;;;16.00;;
56860;SDS011;42744;51.094;3.490;2022-12-11T12:46:09;30.57;;;17.33;;
56860;SDS011;42744;51.094;3.490;2022-12-11T12:49:02;29.53;;;16.93;;
56860;SDS011;42744;51.094;3.490;2022-12-11T12:51:29;28.13;;;16.20;;
56860;SDS011;42744;51.094;3.490;2022-12-11T12:53:57;28.27;;;16.43;;
56860;SDS011;42744;51.094;3.490;2022-12-11T12:56:24;28.07;;;17.80;;
56860;SDS011;42744;51.094;3.490;2022-12-11T12:58:52;27.57;;;15.70;;
56860;SDS011;42744;51.094;3.490;2022-12-11T13:01:22;29.17;;;17.07;;
56860;SDS011;42744;51.094;3.490;2022-12-11T13:08:54;27.27;;;16.20;;
56860;SDS011;42744;51.094;3.490;2022-12-11T13:11:20;28.77;;;16.23;;
56860;SDS011;42744;51.094;3.490;2022-12-11T13:14:03;30.97;;;16.93;;
56860;SDS011;42744;51.094;3.490;2022-12-11T13:19:14;32.00;;;17.57;;
56860;SDS011;42744;51.094;3.490;2022-12-11T13:24:27;32.70;;;17.20;;
56860;SDS011;42744;51.094;3.490;2022-12-11T13:26:56;34.30;;;18.40;;
56860;SDS011;42744;51.094;3.490;2022-12-11T13:29:46;30.23;;;16.30;;
56860;SDS011;42744;51.094;3.490;2022-12-11T13:34:39;31.40;;;17.47;;
56860;SDS011;42744;51.094;3.490;2022-12-11T13:40:02;31.40;;;17.90;;
56860;SDS011;42744;51.094;3.490;2022-12-11T13:42:35;30.90;;;18.53;;
56860;SDS011;42744;51.094;3.490;2022-12-11T13:45:05;30.33;;;17.57;;
56860;SDS011;42744;51.094;3.490;2022-12-11T13:47:42;33.93;;;18.33;;
56860;SDS011;42744;51.094;3.490;2022-12-11T13:50:14;35.87;;;18.90;;
56860;SDS011;42744;51.094;3.490;2022-12-11T13:52:52;28.63;;;16.33;;
56860;SDS011;42744;51.094;3.490;2022-12-11T13:55:20;33.23;;;17.83;;
56860;SDS011;42744;51.094;3.490;2022-12-11T13:57:52;31.27;;;17.33;;
56860;SDS011;42744;51.094;3.490;2022-12-11T14:00:19;30.43;;;16.93;;
56860;SDS011;42744;51.094;3.490;2022-12-11T14:02:48;34.00;;;18.40;;
56860;SDS011;42744;51.094;3.490;2022-12-11T14:05:15;32.23;;;17.93;;
56860;SDS011;42744;51.094;3.490;2022-12-11T14:07:42;33.73;;;18.00;;
56860;SDS011;42744;51.094;3.490;2022-12-11T14:10:26;34.30;;;18.27;;
56860;SDS011;42744;51.094;3.490;2022-12-11T14:15:22;31.70;;;18.73;;
56860;SDS011;42744;51.094;3.490;2022-12-11T14:17:50;33.57;;;20.07;;
56860;SDS011;42744;51.094;3.490;2022-12-11T14:20:21;34.90;;;19.53;;
56860;SDS011;42744;51.094;3.490;2022-12-11T14:22:50;33.10;;;18.23;;
56860;SDS011;42744;51.094;3.490;2022-12-11T14:25:19;33.90;;;18.20;;
56860;SDS011;42744;51.094;3.490;2022-12-11T14:27:48;33.97;;;19.40;;
56860;SDS011;42744;51.094;3.490;2022-12-11T14:30:20;32.03;;;17.13;;
56860;SDS011;42744;51.094;3.490;2022-12-11T14:32:51;30.77;;;17.70;;
56860;SDS011;42744;51.094;3.490;2022-12-11T14:35:42;32.60;;;18.90;;
56860;SDS011;42744;51.094;3.490;2022-12-11T14:38:18;30.43;;;16.57;;
56860;SDS011;42744;51.094;3.490;2022-12-11T14:40:51;29.13;;;17.13;;
56860;SDS011;42744;51.094;3.490;2022-12-11T14:43:26;28.67;;;16.73;;
56860;SDS011;42744;51.094;3.490;2022-12-11T14:46:01;30.13;;;18.03;;
56860;SDS011;42744;51.094;3.490;2022-12-11T14:48:36;30.50;;;17.23;;
56860;SDS011;42744;51.094;3.490;2022-12-11T14:51:24;27.47;;;15.80;;
56860;SDS011;42744;51.094;3.490;2022-12-11T14:53:52;26.13;;;16.20;;
56860;SDS011;42744;51.094;3.490;2022-12-11T14:56:23;26.27;;;15.90;;
56860;SDS011;42744;51.094;3.490;2022-12-11T15:01:31;26.27;;;16.07;;
56860;SDS011;42744;51.094;3.490;2022-12-11T15:04:15;25.17;;;16.10;;
56860;SDS011;42744;51.094;3.490;2022-12-11T15:06:51;25.97;;;16.03;;
56860;SDS011;42744;51.094;3.490;2022-12-11T15:09:18;26.20;;;16.80;;
56860;SDS011;42744;51.094;3.490;2022-12-11T15:11:49;24.77;;;14.97;;
56860;SDS011;42744;51.094;3.490;2022-12-11T15:14:17;23.23;;;13.93;;
56860;SDS011;42744;51.094;3.490;2022-12-11T15:16:45;21.37;;;14.27;;
56860;SDS011;42744;51.094;3.490;2022-12-11T15:19:34;27.33;;;15.83;;
56860;SDS011;42744;51.094;3.490;2022-12-11T15:22:02;23.70;;;15.57;;
56860;SDS011;42744;51.094;3.490;2022-12-11T15:27:04;21.43;;;14.03;;
56860;SDS011;42744;51.094;3.490;2022-12-11T15:29:35;24.03;;;14.90;;
56860;SDS011;42744;51.094;3.490;2022-12-11T15:32:14;24.17;;;15.77;;
56860;SDS011;42744;51.094;3.490;2022-12-11T15:37:26;23.03;;;14.80;;
56860;SDS011;42744;51.094;3.490;2022-12-11T15:39:58;27.73;;;16.40;;
56860;SDS011;42744;51.094;3.490;2022-12-11T15:45:04;26.97;;;15.30;;
56860;SDS011;42744;51.094;3.490;2022-12-11T15:47:36;24.27;;;15.57;;
56860;SDS011;42744;51.094;3.490;2022-12-11T15:50:10;23.20;;;14.57;;
56860;SDS011;42744;51.094;3.490;2022-12-11T15:52:42;25.27;;;16.80;;
56860;SDS011;42744;51.094;3.490;2022-12-11T15:55:08;31.67;;;21.03;;
56860;SDS011;42744;51.094;3.490;2022-12-11T15:57:35;24.93;;;16.30;;
56860;SDS011;42744;51.094;3.490;2022-12-11T16:00:02;23.80;;;15.67;;
56860;SDS011;42744;51.094;3.490;2022-12-11T16:02:30;27.07;;;15.87;;
56860;SDS011;42744;51.094;3.490;2022-12-11T16:04:57;22.57;;;15.17;;
56860;SDS011;42744;51.094;3.490;2022-12-11T16:07:23;24.13;;;15.90;;
56860;SDS011;42744;51.094;3.490;2022-12-11T16:09:50;26.20;;;17.30;;
56860;SDS011;42744;51.094;3.490;2022-12-11T16:12:17;25.53;;;15.50;;
56860;SDS011;42744;51.094;3.490;2022-12-11T16:14:43;24.83;;;14.87;;
56860;SDS011;42744;51.094;3.490;2022-12-11T16:17:11;23.50;;;14.47;;
56860;SDS011;42744;51.094;3.490;2022-12-11T16:19:39;23.80;;;15.37;;
56860;SDS011;42744;51.094;3.490;2022-12-11T16:22:06;24.77;;;15.00;;
56860;SDS011;42744;51.094;3.490;2022-12-11T16:24:33;22.63;;;15.20;;